createdAt,value
2018-04-26T00:00:45.757Z,9.70
2018-04-26T00:03:14.707Z,9.60
2018-04-26T00:05:42.971Z,9.60
2018-04-26T00:08:11.171Z,9.60
2018-04-26T00:10:39.531Z,9.50
2018-04-26T00:13:07.896Z,9.40
2018-04-26T00:15:37.130Z,9.40
2018-04-26T00:18:05.327Z,9.40
2018-04-26T00:20:33.718Z,9.40
2018-04-26T00:23:01.945Z,9.30
2018-04-26T00:25:31.707Z,9.30
2018-04-26T00:28:00.676Z,9.30
2018-04-26T00:30:28.900Z,9.30
2018-04-26T00:32:57.847Z,9.30
2018-04-26T00:35:26.201Z,9.30
2018-04-26T00:37:54.481Z,9.30
2018-04-26T00:40:22.724Z,9.30
2018-04-26T00:42:51.430Z,9.20
2018-04-26T00:45:19.761Z,9.20
2018-04-26T00:47:49.532Z,9.20
2018-04-26T00:50:17.790Z,9.20
2018-04-26T00:52:46.098Z,9.10
2018-04-26T00:55:14.274Z,9.10
2018-04-26T00:57:42.580Z,9.10
2018-04-26T01:00:11.634Z,9.10
2018-04-26T01:02:39.834Z,9.10
2018-04-26T01:05:08.830Z,9.10
2018-04-26T01:07:37.055Z,9.10
2018-04-26T01:10:05.269Z,9.10
2018-04-26T01:12:33.453Z,9.10
2018-04-26T01:15:01.665Z,9.10
2018-04-26T01:17:33.140Z,9.00
2018-04-26T01:20:19.106Z,9.00
2018-04-26T01:22:51.701Z,9.00
2018-04-26T01:25:22.628Z,9.00
2018-04-26T01:28:01.652Z,9.00
2018-04-26T01:30:30.500Z,9.00
2018-04-26T01:33:16.190Z,9.10
2018-04-26T01:35:46.182Z,9.10
2018-04-26T01:38:29.370Z,9.00
2018-04-26T01:40:58.097Z,9.10
2018-04-26T01:43:26.406Z,9.10
2018-04-26T01:45:57.172Z,9.10
2018-04-26T01:48:26.322Z,9.20
2018-04-26T01:50:54.669Z,9.20
2018-04-26T01:53:23.907Z,9.20
2018-04-26T01:55:52.116Z,9.30
2018-04-26T01:58:20.344Z,9.30
2018-04-26T02:00:48.569Z,9.30
2018-04-26T02:03:18.040Z,9.30
2018-04-26T02:05:46.227Z,9.30
2018-04-26T02:08:14.612Z,9.30
2018-04-26T02:10:43.697Z,9.30
2018-04-26T02:13:11.925Z,9.30
2018-04-26T02:15:40.191Z,9.30
2018-04-26T02:18:09.193Z,9.40
2018-04-26T02:20:38.840Z,9.40
2018-04-26T02:23:08.161Z,9.40
2018-04-26T02:25:36.375Z,9.40
2018-04-26T02:28:04.693Z,9.40
2018-04-26T02:30:33.633Z,9.30
2018-04-26T02:33:01.893Z,9.30
2018-04-26T02:35:30.273Z,9.30
2018-04-26T02:37:59.064Z,9.30
2018-04-26T02:40:27.290Z,9.30
2018-04-26T02:42:56.639Z,9.30
2018-04-26T02:45:24.873Z,9.30
2018-04-26T02:47:53.846Z,9.20
2018-04-26T02:50:22.860Z,9.20
2018-04-26T02:52:52.000Z,9.20
2018-04-26T02:55:20.296Z,9.20
2018-04-26T02:57:48.570Z,9.10
2018-04-26T03:00:16.976Z,9.10
2018-04-26T03:02:45.266Z,9.10
2018-04-26T03:05:14.262Z,9.00
2018-04-26T03:07:42.639Z,9.00
2018-04-26T03:10:11.634Z,8.90
2018-04-26T03:12:39.903Z,8.90
2018-04-26T03:15:08.195Z,8.90
2018-04-26T03:17:37.297Z,8.80
2018-04-26T03:20:05.542Z,8.70
2018-04-26T03:22:33.760Z,8.70
2018-04-26T03:25:02.744Z,8.60
2018-04-26T03:27:30.971Z,8.60
2018-04-26T03:29:59.233Z,8.50
2018-04-26T03:32:27.509Z,8.50
2018-04-26T03:34:55.809Z,8.50
2018-04-26T03:37:24.056Z,8.50
2018-04-26T03:39:52.270Z,8.30
2018-04-26T03:42:22.073Z,8.30
2018-04-26T03:44:50.269Z,8.30
2018-04-26T03:47:18.481Z,8.30
2018-04-26T03:49:47.493Z,8.20
2018-04-26T03:52:16.639Z,8.20
2018-04-26T03:54:44.851Z,8.10
2018-04-26T03:57:13.996Z,8.10
2018-04-26T03:59:54.145Z,8.10
2018-04-26T04:02:34.408Z,8.10
2018-04-26T04:05:21.741Z,8.00
2018-04-26T04:07:49.954Z,8.00
2018-04-26T04:10:18.409Z,8.00
2018-04-26T04:12:46.769Z,8.00
2018-04-26T04:15:15.041Z,7.90
2018-04-26T04:17:43.323Z,7.80
2018-04-26T04:20:11.534Z,7.90
2018-04-26T04:22:40.729Z,7.90
2018-04-26T04:25:08.985Z,7.80
2018-04-26T04:27:37.217Z,7.80
2018-04-26T04:30:05.474Z,7.80
2018-04-26T04:32:33.734Z,7.70
2018-04-26T04:35:01.946Z,7.80
2018-04-26T04:37:30.896Z,7.80
2018-04-26T04:39:59.510Z,7.70
2018-04-26T04:42:28.529Z,7.70
2018-04-26T04:44:56.723Z,7.70
2018-04-26T04:47:24.930Z,7.70
2018-04-26T04:49:53.130Z,7.70
2018-04-26T04:52:21.358Z,7.80
2018-04-26T04:54:49.564Z,7.70
2018-04-26T04:57:18.661Z,7.70
2018-04-26T04:59:46.830Z,7.70
2018-04-26T05:02:15.072Z,7.70
2018-04-26T05:04:43.284Z,7.80
2018-04-26T05:07:11.538Z,7.80
2018-04-26T05:09:39.915Z,7.80
2018-04-26T05:12:08.304Z,7.90
2018-04-26T05:14:37.535Z,7.90
2018-04-26T05:17:06.071Z,7.90
2018-04-26T05:19:34.505Z,7.90
2018-04-26T05:22:04.285Z,8.00
2018-04-26T05:24:32.565Z,8.00
2018-04-26T05:27:00.948Z,8.10
2018-04-26T05:29:30.132Z,8.20
2018-04-26T05:31:58.425Z,8.20
2018-04-26T05:34:26.685Z,8.30
2018-04-26T05:36:54.925Z,8.30
2018-04-26T05:39:23.242Z,8.40
2018-04-26T05:41:51.561Z,8.40
2018-04-26T05:44:20.007Z,8.50
2018-04-26T05:46:48.216Z,8.50
2018-04-26T05:49:18.117Z,8.60
2018-04-26T05:51:47.901Z,8.70
2018-04-26T05:54:17.019Z,8.70
2018-04-26T05:56:45.446Z,8.80
2018-04-26T05:59:13.770Z,8.80
2018-04-26T06:01:42.026Z,8.90
2018-04-26T06:04:10.238Z,8.90
2018-04-26T06:06:38.789Z,9.00
2018-04-26T06:09:07.108Z,9.10
2018-04-26T06:11:37.013Z,9.20
2018-04-26T06:14:05.285Z,9.20
2018-04-26T06:16:34.529Z,9.30
2018-04-26T06:19:04.233Z,9.40
2018-04-26T06:21:33.399Z,9.50
2018-04-26T06:24:01.816Z,9.40
2018-04-26T06:26:31.177Z,9.50
2018-04-26T06:28:59.564Z,9.60
2018-04-26T06:31:27.834Z,9.70
2018-04-26T06:33:56.064Z,9.80
2018-04-26T06:36:25.032Z,9.90
2018-04-26T06:38:54.084Z,9.90
2018-04-26T06:41:23.105Z,9.90
2018-04-26T06:43:51.469Z,10.10
2018-04-26T06:46:19.659Z,10.10
2018-04-26T06:48:47.843Z,10.20
2018-04-26T06:51:16.220Z,10.20
2018-04-26T06:53:44.445Z,10.30
2018-04-26T06:56:13.113Z,10.40
2018-04-26T06:58:41.417Z,10.40
2018-04-26T07:01:11.131Z,10.50
2018-04-26T07:03:40.095Z,10.70
2018-04-26T07:06:08.306Z,10.70
2018-04-26T07:08:36.593Z,10.70
2018-04-26T07:11:04.799Z,10.70
2018-04-26T07:13:33.057Z,10.90
2018-04-26T07:16:01.347Z,10.90
2018-04-26T07:18:29.614Z,10.90
2018-04-26T07:20:57.858Z,10.90
2018-04-26T07:23:26.139Z,11.00
2018-04-26T07:25:54.364Z,11.10
2018-04-26T07:28:22.591Z,11.30
2018-04-26T07:30:52.240Z,11.30
2018-04-26T07:33:20.499Z,11.30
2018-04-26T07:35:49.386Z,11.20
2018-04-26T07:38:18.116Z,11.30
2018-04-26T07:40:47.120Z,11.40
2018-04-26T07:43:15.450Z,11.30
2018-04-26T07:45:43.713Z,11.30
2018-04-26T07:48:12.658Z,11.30
2018-04-26T07:50:40.905Z,11.30
2018-04-26T07:53:09.377Z,11.40
2018-04-26T07:55:37.535Z,11.70
2018-04-26T07:58:06.544Z,12.50
2018-04-26T08:00:34.778Z,12.50
2018-04-26T08:03:03.133Z,12.90
2018-04-26T08:05:31.505Z,13.00
2018-04-26T08:07:59.765Z,13.10
2018-04-26T08:10:28.071Z,13.20
2018-04-26T08:12:56.335Z,13.10
2018-04-26T08:15:24.571Z,13.10
2018-04-26T08:17:53.621Z,12.50
2018-04-26T08:20:22.693Z,12.50
2018-04-26T08:22:50.932Z,12.50
2018-04-26T08:25:19.921Z,12.20
2018-04-26T08:27:48.167Z,12.20
2018-04-26T08:30:16.465Z,12.40
2018-04-26T08:32:44.728Z,12.70
2018-04-26T08:35:12.946Z,13.00
2018-04-26T08:37:41.910Z,13.40
2018-04-26T08:40:10.356Z,13.40
2018-04-26T08:42:38.604Z,13.70
2018-04-26T08:45:07.589Z,13.90
2018-04-26T08:47:36.115Z,13.90
2018-04-26T08:50:04.338Z,13.90
2018-04-26T08:52:33.548Z,13.90
2018-04-26T08:55:02.539Z,14.20
2018-04-26T08:57:32.114Z,14.30
2018-04-26T09:00:00.340Z,14.30
2018-04-26T09:02:29.470Z,13.40
2018-04-26T09:04:57.732Z,13.40
2018-04-26T09:07:26.053Z,13.00
2018-04-26T09:09:55.036Z,13.20
2018-04-26T09:12:24.758Z,13.60
2018-04-26T09:14:53.839Z,13.90
2018-04-26T09:17:22.194Z,13.90
2018-04-26T09:19:50.513Z,14.30
2018-04-26T09:22:18.785Z,14.40
2018-04-26T09:24:47.021Z,14.40
2018-04-26T09:27:15.271Z,14.40
2018-04-26T09:29:44.260Z,14.50
2018-04-26T09:32:12.499Z,14.50
2018-04-26T09:34:40.897Z,14.80
2018-04-26T09:37:09.953Z,14.90
2018-04-26T09:39:38.243Z,14.80
2018-04-26T09:42:06.534Z,14.20
2018-04-26T09:44:34.811Z,14.00
2018-04-26T09:47:03.383Z,14.20
2018-04-26T09:49:31.623Z,14.20
2018-04-26T09:52:00.607Z,14.20
2018-04-26T09:54:29.591Z,14.20
2018-04-26T09:56:58.088Z,14.20
2018-04-26T09:59:27.371Z,14.90
2018-04-26T10:02:02.090Z,14.60
2018-04-26T10:04:36.401Z,14.70
2018-04-26T10:07:04.661Z,14.40
2018-04-26T10:09:32.948Z,14.20
2018-04-26T10:12:01.959Z,13.60
2018-04-26T10:14:30.333Z,13.60
2018-04-26T10:16:58.895Z,13.60
2018-04-26T10:21:56.816Z,13.40
2018-04-26T10:24:26.522Z,13.60
2018-04-26T10:26:55.613Z,14.00
2018-04-26T10:29:24.916Z,14.00
2018-04-26T10:31:53.173Z,14.40
2018-04-26T10:34:21.693Z,14.50
2018-04-26T10:36:51.688Z,14.50
2018-04-26T10:39:20.069Z,14.50
2018-04-26T10:41:48.570Z,14.60
2018-04-26T10:44:16.929Z,14.00
2018-04-26T10:46:46.040Z,13.70
2018-04-26T10:49:15.538Z,13.70
2018-04-26T10:51:44.647Z,13.60
2018-04-26T10:54:17.915Z,13.50
2018-04-26T10:56:49.780Z,13.60
2018-04-26T10:59:18.961Z,13.60
2018-04-26T11:01:48.422Z,13.60
2018-04-26T11:04:20.313Z,13.80
2018-04-26T11:06:49.020Z,13.80
2018-04-26T11:09:27.166Z,14.10
2018-04-26T11:11:55.669Z,14.10
2018-04-26T11:14:24.710Z,14.70
2018-04-26T11:16:53.009Z,14.60
2018-04-26T11:19:21.250Z,15.10
2018-04-26T11:21:55.783Z,15.50
2018-04-26T11:24:31.288Z,15.80
2018-04-26T11:27:10.209Z,14.80
2018-04-26T11:29:47.197Z,14.80
2018-04-26T11:32:23.493Z,14.70
2018-04-26T11:35:01.161Z,15.00
2018-04-26T11:37:40.767Z,15.50
2018-04-26T11:40:17.356Z,15.90
2018-04-26T11:42:55.559Z,16.40
2018-04-26T11:45:30.334Z,16.40
2018-04-26T11:48:07.001Z,16.60
2018-04-26T11:50:41.063Z,16.80
2018-04-26T11:53:16.079Z,17.00
2018-04-26T11:56:03.263Z,16.80
2018-04-26T11:58:33.829Z,16.40
2018-04-26T12:01:05.383Z,16.60
2018-04-26T12:03:37.191Z,16.90
2018-04-26T12:06:15.490Z,17.30
2018-04-26T12:08:48.077Z,17.30
2018-04-26T12:11:23.932Z,17.30
2018-04-26T12:13:59.966Z,16.60
2018-04-26T12:16:37.045Z,16.30
2018-04-26T12:19:11.251Z,16.20
2018-04-26T12:21:43.515Z,16.80
2018-04-26T12:24:19.633Z,16.80
2018-04-26T12:26:50.315Z,16.10
2018-04-26T12:29:19.314Z,16.10
2018-04-26T12:31:50.073Z,16.40
2018-04-26T12:34:24.125Z,16.30
2018-04-26T12:36:53.593Z,16.70
2018-04-26T12:39:25.684Z,16.90
2018-04-26T12:41:56.826Z,17.20
2018-04-26T12:44:28.370Z,17.00
2018-04-26T12:50:39.402Z,16.00
2018-04-26T12:53:14.802Z,15.90
2018-04-26T12:55:50.654Z,16.20
2018-04-26T12:58:31.181Z,15.90
2018-04-26T13:01:14.746Z,15.70
2018-04-26T13:03:54.079Z,15.70
2018-04-26T13:06:38.893Z,15.50
2018-04-26T13:09:16.489Z,15.50
2018-04-26T13:11:58.271Z,16.00
2018-04-26T13:14:30.117Z,16.50
2018-04-26T13:17:06.286Z,16.90
2018-04-26T13:19:49.527Z,16.80
2018-04-26T13:22:26.151Z,16.80
2018-04-26T13:25:02.217Z,16.50
2018-04-26T13:27:35.891Z,16.90
2018-04-26T13:30:15.267Z,16.80
2018-04-26T13:32:56.841Z,16.90
2018-04-26T13:35:36.550Z,16.20
2018-04-26T13:38:10.036Z,16.20
2018-04-26T13:40:44.556Z,16.60
2018-04-26T13:43:20.686Z,17.20
2018-04-26T13:46:05.368Z,17.20
2018-04-26T13:48:41.644Z,17.20
2018-04-26T13:51:12.829Z,16.60
2018-04-26T13:53:47.403Z,16.10
2018-04-26T13:56:26.318Z,16.40
2018-04-26T13:59:09.295Z,16.10
2018-04-26T14:01:50.962Z,15.80
2018-04-26T14:04:29.880Z,16.30
2018-04-26T14:07:12.388Z,16.30
2018-04-26T14:09:52.215Z,16.80
2018-04-26T14:12:28.480Z,17.30
2018-04-26T14:15:06.292Z,17.50
2018-04-26T14:17:38.809Z,17.50
2018-04-26T14:20:21.108Z,17.60
2018-04-26T14:23:01.077Z,17.10
2018-04-26T14:25:34.046Z,16.70
2018-04-26T14:28:12.235Z,16.70
2018-04-26T14:30:55.170Z,16.90
2018-04-26T14:33:33.363Z,17.10
2018-04-26T14:36:07.681Z,17.10
2018-04-26T14:38:39.655Z,17.10
2018-04-26T14:41:11.081Z,17.10
2018-04-26T14:43:53.013Z,17.00
2018-04-26T14:46:27.019Z,17.20
2018-04-26T14:49:10.386Z,17.00
2018-04-26T14:51:47.837Z,17.00
2018-04-26T14:54:32.240Z,17.00
2018-04-26T14:57:07.711Z,17.10
2018-04-26T14:59:40.340Z,17.30
2018-04-26T15:02:22.758Z,17.10
2018-04-26T15:05:05.713Z,17.00
2018-04-26T15:07:37.245Z,17.10
2018-04-26T15:10:13.221Z,17.30
2018-04-26T15:12:53.850Z,17.50
2018-04-26T15:15:28.636Z,17.60
2018-04-26T15:17:57.949Z,17.40
2018-04-26T15:20:26.230Z,17.40
2018-04-26T15:22:56.188Z,17.40
2018-04-26T15:25:24.498Z,17.40
2018-04-26T15:27:52.946Z,17.40
2018-04-26T15:30:21.319Z,17.40
2018-04-26T15:32:49.655Z,17.30
2018-04-26T15:35:20.963Z,17.20
2018-04-26T15:37:49.825Z,17.10
2018-04-26T15:40:18.126Z,16.90
2018-04-26T15:42:46.409Z,16.50
2018-04-26T15:45:14.793Z,16.10
2018-04-26T15:47:43.100Z,16.10
2018-04-26T15:50:13.010Z,17.10
2018-04-26T15:53:00.034Z,17.40
2018-04-26T15:55:40.260Z,17.40
2018-04-26T16:01:34.338Z,17.40
2018-04-26T16:04:15.236Z,17.20
2018-04-26T16:06:55.413Z,17.20
2018-04-26T16:09:35.812Z,17.00
2018-04-26T16:12:34.299Z,16.80
2018-04-26T16:15:24.160Z,16.10
2018-04-26T16:18:10.148Z,16.10
2018-04-26T16:20:56.989Z,15.70
2018-04-26T16:23:43.646Z,16.20
2018-04-26T16:29:41.241Z,16.50
2018-04-26T16:32:27.650Z,16.40
2018-04-26T16:35:13.640Z,16.00
2018-04-26T16:38:01.871Z,15.90
2018-04-26T16:40:32.924Z,15.90
2018-04-26T16:43:02.161Z,16.00
2018-04-26T16:45:31.279Z,15.20
2018-04-26T16:48:00.284Z,14.90
2018-04-26T16:50:32.396Z,14.50
2018-04-26T16:53:02.046Z,14.50
2018-04-26T16:55:39.358Z,14.10
2018-04-26T16:58:15.880Z,14.00
2018-04-26T17:00:54.008Z,14.00
2018-04-26T17:03:30.142Z,14.00
2018-04-26T17:06:07.221Z,13.90
2018-04-26T17:08:45.812Z,13.90
2018-04-26T17:11:23.081Z,13.90
2018-04-26T17:14:03.579Z,13.60
2018-04-26T17:16:33.208Z,13.60
2018-04-26T17:19:01.619Z,13.60
2018-04-26T17:21:30.681Z,13.90
2018-04-26T17:23:58.941Z,13.80
2018-04-26T17:26:27.263Z,13.90
2018-04-26T17:28:56.317Z,13.70
2018-04-26T17:31:24.662Z,13.60
2018-04-26T17:33:52.922Z,13.50
2018-04-26T17:36:21.980Z,13.40
2018-04-26T17:38:50.228Z,13.40
2018-04-26T17:41:19.293Z,13.20
2018-04-26T17:43:48.292Z,13.30
2018-04-26T17:46:17.573Z,13.30
2018-04-26T17:48:45.828Z,13.30
2018-04-26T17:51:14.138Z,13.30
2018-04-26T17:53:43.724Z,13.20
2018-04-26T17:56:12.624Z,13.10
2018-04-26T17:58:40.868Z,13.10
2018-04-26T18:01:09.301Z,12.90
2018-04-26T18:03:38.294Z,12.70
2018-04-26T18:06:07.352Z,12.60
2018-04-26T18:08:35.671Z,12.60
2018-04-26T18:11:03.994Z,12.50
2018-04-26T18:13:32.343Z,12.40
2018-04-26T18:16:01.407Z,12.20
2018-04-26T18:18:30.479Z,12.20
2018-04-26T18:20:58.703Z,12.20
2018-04-26T18:23:27.763Z,12.00
2018-04-26T18:25:55.993Z,12.10
2018-04-26T18:28:24.234Z,11.90
2018-04-26T18:30:52.906Z,11.90
2018-04-26T18:33:21.337Z,11.90
2018-04-26T18:35:49.821Z,11.80
2018-04-26T18:38:18.044Z,11.70
2018-04-26T18:40:46.739Z,11.70
2018-04-26T18:43:14.957Z,11.60
2018-04-26T18:45:44.106Z,11.50
2018-04-26T18:48:12.307Z,11.50
2018-04-26T18:50:55.345Z,11.40
2018-04-26T18:56:17.043Z,11.20
2018-04-26T18:58:45.757Z,11.10
2018-04-26T19:01:14.155Z,10.90
2018-04-26T19:03:43.269Z,10.90
2018-04-26T19:06:11.471Z,10.80
2018-04-26T19:08:39.866Z,10.80
2018-04-26T19:11:08.183Z,10.70
2018-04-26T19:13:37.583Z,10.60
2018-04-26T19:16:05.830Z,10.60
2018-04-26T19:18:34.102Z,10.50
2018-04-26T19:21:02.389Z,10.40
2018-04-26T19:23:30.903Z,10.40
2018-04-26T19:25:59.465Z,10.40
2018-04-26T19:28:27.726Z,10.30
2018-04-26T19:30:56.083Z,10.30
2018-04-26T19:33:26.546Z,10.30
2018-04-26T19:35:55.582Z,10.10
2018-04-26T19:38:23.936Z,10.10
2018-04-26T19:40:52.133Z,10.10
2018-04-26T19:43:21.076Z,10.10
2018-04-26T19:45:49.371Z,9.90
2018-04-26T19:48:17.578Z,9.80
2018-04-26T19:50:45.898Z,9.70
2018-04-26T19:53:14.358Z,9.70
2018-04-26T19:55:42.620Z,9.70
2018-04-26T19:58:12.163Z,9.60
2018-04-26T20:00:40.380Z,9.60
2018-04-26T20:03:08.626Z,9.50
2018-04-26T20:05:36.958Z,9.50
2018-04-26T20:08:05.221Z,9.40
2018-04-26T20:10:33.467Z,9.30
2018-04-26T20:13:02.745Z,9.20
2018-04-26T20:15:34.159Z,9.10
2018-04-26T20:18:02.615Z,9.10
2018-04-26T20:20:30.889Z,9.20
2018-04-26T20:22:59.392Z,9.20
2018-04-26T20:25:27.598Z,9.20
2018-04-26T20:27:56.654Z,9.10
2018-04-26T20:30:25.064Z,9.10
2018-04-26T20:32:53.278Z,9.20
2018-04-26T20:35:22.253Z,9.00
2018-04-26T20:37:51.192Z,8.90
2018-04-26T20:40:19.422Z,8.90
2018-04-26T20:42:47.747Z,8.80
2018-04-26T20:45:15.993Z,8.70
2018-04-26T20:47:44.291Z,8.80
2018-04-26T20:50:12.573Z,8.70
2018-04-26T20:52:41.018Z,8.60
2018-04-26T20:55:09.262Z,8.70
2018-04-26T20:57:38.371Z,8.70
2018-04-26T21:00:08.302Z,8.60
2018-04-26T21:02:36.554Z,8.50
2018-04-26T21:05:05.116Z,8.50
2018-04-26T21:07:33.418Z,8.30
2018-04-26T21:10:02.696Z,8.30
2018-04-26T21:12:30.988Z,8.20
2018-04-26T21:14:59.367Z,8.10
2018-04-26T21:17:27.765Z,7.90
2018-04-26T21:19:56.720Z,7.90
2018-04-26T21:22:25.117Z,7.80
2018-04-26T21:24:54.830Z,7.70
2018-04-26T21:27:24.129Z,7.70
2018-04-26T21:29:52.736Z,7.70
2018-04-26T21:32:21.220Z,7.60
2018-04-26T21:34:50.406Z,7.60
2018-04-26T21:37:18.773Z,7.60
2018-04-26T21:39:47.752Z,7.60
2018-04-26T21:42:16.761Z,7.60
2018-04-26T21:44:45.188Z,7.60
2018-04-26T21:47:14.221Z,7.40
2018-04-26T21:49:42.122Z,7.40
2018-04-26T21:52:16.228Z,7.30
2018-04-26T21:54:51.158Z,7.20
2018-04-26T21:57:25.311Z,7.10
2018-04-26T22:00:00.111Z,7.10
2018-04-26T22:02:27.911Z,7.10
2018-04-26T22:05:01.900Z,7.10
2018-04-26T22:07:30.281Z,7.20
2018-04-26T22:10:00.178Z,7.20
2018-04-26T22:12:28.719Z,7.20
2018-04-26T22:14:57.861Z,7.20
2018-04-26T22:17:26.357Z,7.10
2018-04-26T22:19:54.744Z,7.10
2018-04-26T22:22:23.153Z,7.00
2018-04-26T22:24:51.512Z,7.00
2018-04-26T22:27:19.865Z,6.90
2018-04-26T22:29:48.452Z,6.80
2018-04-26T22:32:17.002Z,6.80
2018-04-26T22:34:45.504Z,6.70
2018-04-26T22:37:13.898Z,6.90
2018-04-26T22:39:42.937Z,6.80
2018-04-26T22:42:11.957Z,6.80
2018-04-26T22:44:41.943Z,6.60
2018-04-26T22:47:10.314Z,6.60
2018-04-26T22:49:38.871Z,6.50
2018-04-26T22:52:09.943Z,6.20
2018-04-26T22:54:38.403Z,6.20
2018-04-26T22:57:06.981Z,6.10
2018-04-26T22:59:35.396Z,6.00
2018-04-26T23:02:04.561Z,6.00
2018-04-26T23:04:33.663Z,6.00
2018-04-26T23:07:01.982Z,5.90
2018-04-26T23:09:30.324Z,6.00
2018-04-26T23:11:59.621Z,6.00
2018-04-26T23:14:27.894Z,6.20
2018-04-26T23:16:56.203Z,6.30
2018-04-26T23:19:25.389Z,6.20
2018-04-26T23:21:53.670Z,6.20
2018-04-26T23:24:22.847Z,6.20
2018-04-26T23:26:51.151Z,6.10
2018-04-26T23:29:19.465Z,6.20
2018-04-26T23:31:47.802Z,6.20
2018-04-26T23:34:16.283Z,6.30
2018-04-26T23:36:44.652Z,6.30
2018-04-26T23:39:13.960Z,6.30
2018-04-26T23:41:44.358Z,6.30
2018-04-26T23:44:12.862Z,6.30
2018-04-26T23:46:41.385Z,6.20
2018-04-26T23:49:10.452Z,6.20
2018-04-26T23:51:38.732Z,6.20
2018-04-26T23:54:07.117Z,6.20
2018-04-26T23:56:36.548Z,6.10
2018-04-26T23:59:06.165Z,6.20
